createdAt,value
2022-10-21T00:01:50.773Z,21.13
2022-10-21T00:04:17.319Z,18.63
2022-10-21T00:06:43.853Z,25.07
2022-10-21T00:09:10.480Z,27.17
2022-10-21T00:11:37.110Z,25.83
2022-10-21T00:14:03.982Z,24.87
2022-10-21T00:16:30.494Z,23.47
2022-10-21T00:18:57.081Z,27.13
2022-10-21T00:21:23.750Z,19.83
2022-10-21T00:23:50.404Z,20.90
2022-10-21T00:26:18.402Z,26.37
2022-10-21T00:28:45.463Z,19.40
2022-10-21T00:31:14.283Z,19.97
2022-10-21T00:33:42.289Z,23.07
2022-10-21T00:36:14.718Z,24.40
2022-10-21T00:38:44.310Z,20.83
2022-10-21T00:41:11.252Z,21.47
2022-10-21T00:43:59.106Z,27.20
2022-10-21T00:47:00.965Z,23.53
2022-10-21T00:49:59.953Z,25.50
2022-10-21T00:52:29.821Z,21.30
2022-10-21T00:54:58.056Z,24.43
2022-10-21T00:57:26.822Z,20.53
2022-10-21T01:00:00.876Z,25.57
2022-10-21T01:03:29.267Z,20.63
2022-10-21T01:05:58.448Z,23.70
2022-10-21T01:08:25.742Z,23.03
2022-10-21T01:10:53.165Z,23.67
2022-10-21T01:16:42.088Z,22.37
2022-10-21T01:19:32.316Z,20.43
2022-10-21T01:22:27.854Z,23.47
2022-10-21T01:25:32.993Z,28.37
2022-10-21T01:28:28.987Z,21.77
2022-10-21T01:31:01.031Z,24.60
2022-10-21T01:33:40.604Z,23.10
2022-10-21T01:36:47.834Z,23.97
2022-10-21T01:39:23.482Z,30.60
2022-10-21T01:41:56.004Z,25.40
2022-10-21T01:44:27.566Z,24.07
2022-10-21T01:46:57.037Z,25.50
2022-10-21T01:49:50.267Z,23.87
2022-10-21T01:52:17.383Z,31.67
2022-10-21T01:54:48.114Z,24.97
2022-10-21T01:57:18.220Z,20.53
2022-10-21T01:59:46.430Z,23.67
2022-10-21T02:02:16.147Z,23.37
2022-10-21T02:04:45.389Z,26.43
2022-10-21T02:07:12.015Z,22.90
2022-10-21T02:09:38.794Z,19.80
2022-10-21T02:12:06.401Z,28.20
2022-10-21T02:14:36.969Z,27.57
2022-10-21T02:17:04.856Z,25.97
2022-10-21T02:19:32.668Z,25.63
2022-10-21T02:22:04.245Z,23.57
2022-10-21T02:24:37.273Z,22.67
2022-10-21T02:27:04.293Z,29.03
2022-10-21T02:29:38.253Z,21.97
2022-10-21T02:32:28.467Z,27.77
2022-10-21T02:35:13.829Z,24.10
2022-10-21T02:37:58.365Z,23.50
2022-10-21T02:40:42.478Z,24.50
2022-10-21T02:43:31.968Z,26.33
2022-10-21T02:46:17.278Z,33.93
2022-10-21T02:48:46.614Z,19.30
2022-10-21T02:51:14.469Z,28.23
2022-10-21T02:53:41.881Z,26.13
2022-10-21T02:56:09.208Z,25.57
2022-10-21T02:58:36.304Z,21.57
2022-10-21T03:01:03.088Z,23.07
2022-10-21T03:03:29.898Z,25.03
2022-10-21T03:05:57.528Z,23.27
2022-10-21T03:08:24.251Z,20.50
2022-10-21T03:10:53.201Z,24.13
2022-10-21T03:13:21.875Z,31.03
2022-10-21T03:15:49.426Z,24.53
2022-10-21T03:18:16.465Z,27.73
2022-10-21T03:20:43.095Z,27.33
2022-10-21T03:23:10.186Z,29.13
2022-10-21T03:25:36.714Z,22.10
2022-10-21T03:28:03.273Z,27.90
2022-10-21T03:30:29.804Z,28.87
2022-10-21T03:32:56.317Z,25.87
2022-10-21T03:35:22.941Z,23.50
2022-10-21T03:37:49.465Z,31.37
2022-10-21T03:40:16.094Z,22.30
2022-10-21T03:42:42.661Z,38.93
2022-10-21T03:45:09.801Z,38.97
2022-10-21T03:47:36.875Z,25.27
2022-10-21T03:50:06.383Z,25.83
2022-10-21T03:52:35.620Z,30.03
2022-10-21T03:55:02.341Z,24.30
2022-10-21T03:57:28.872Z,25.63
2022-10-21T03:59:55.589Z,25.13
2022-10-21T04:02:22.155Z,28.13
2022-10-21T04:04:48.941Z,22.70
2022-10-21T04:07:15.471Z,20.67
2022-10-21T04:09:42.394Z,24.47
2022-10-21T04:12:08.920Z,23.33
2022-10-21T04:14:35.584Z,29.60
2022-10-21T04:17:07.487Z,28.13
2022-10-21T04:19:34.933Z,24.63
2022-10-21T04:22:01.786Z,21.57
2022-10-21T04:24:28.417Z,22.43
2022-10-21T04:26:54.974Z,20.40
2022-10-21T04:29:21.606Z,18.80
2022-10-21T04:31:48.177Z,26.93
2022-10-21T04:34:14.922Z,23.27
2022-10-21T04:36:41.466Z,24.83
2022-10-21T04:39:08.029Z,26.30
2022-10-21T04:41:34.657Z,20.47
2022-10-21T04:44:01.996Z,30.60
2022-10-21T04:46:28.625Z,20.53
2022-10-21T04:48:55.158Z,23.83
2022-10-21T04:51:22.113Z,21.93
2022-10-21T04:53:48.695Z,23.10
2022-10-21T04:56:15.311Z,16.50
2022-10-21T04:58:42.239Z,20.07
2022-10-21T05:01:08.957Z,32.10
2022-10-21T05:03:35.595Z,28.30
2022-10-21T05:06:02.393Z,19.83
2022-10-21T05:08:29.484Z,20.70
2022-10-21T05:11:00.691Z,18.40
2022-10-21T05:13:28.670Z,18.50
2022-10-21T05:16:03.251Z,20.60
2022-10-21T05:18:30.980Z,24.00
2022-10-21T05:20:58.832Z,21.90
2022-10-21T05:23:26.828Z,22.97
2022-10-21T05:25:53.680Z,28.50
2022-10-21T05:28:21.354Z,19.40
2022-10-21T05:30:48.402Z,20.50
2022-10-21T05:33:15.324Z,20.37
2022-10-21T05:35:42.333Z,20.23
2022-10-21T05:38:08.855Z,22.27
2022-10-21T05:40:35.519Z,19.23
2022-10-21T05:43:02.065Z,24.30
2022-10-21T05:45:28.695Z,22.37
2022-10-21T05:47:55.290Z,21.83
2022-10-21T05:50:21.933Z,20.00
2022-10-21T05:52:48.719Z,21.60
2022-10-21T05:55:15.501Z,21.90
2022-10-21T05:57:42.401Z,25.30
2022-10-21T06:00:09.960Z,17.60
2022-10-21T06:02:37.336Z,24.17
2022-10-21T06:05:04.401Z,24.03
2022-10-21T06:07:31.170Z,20.10
2022-10-21T06:09:57.739Z,16.80
2022-10-21T06:12:25.522Z,17.67
2022-10-21T06:14:52.204Z,20.73
2022-10-21T06:17:18.861Z,21.10
2022-10-21T06:19:48.675Z,19.27
2022-10-21T06:22:17.503Z,15.97
2022-10-21T06:24:44.252Z,18.07
2022-10-21T06:27:10.814Z,20.23
2022-10-21T06:29:37.485Z,21.57
2022-10-21T06:32:04.218Z,23.57
2022-10-21T06:34:31.088Z,21.23
2022-10-21T06:36:57.760Z,21.43
2022-10-21T06:39:24.436Z,18.53
2022-10-21T06:41:50.993Z,17.03
2022-10-21T06:44:37.756Z,22.80
2022-10-21T06:47:04.705Z,20.27
2022-10-21T06:49:31.370Z,15.70
2022-10-21T06:51:57.970Z,22.47
2022-10-21T06:54:24.632Z,22.03
2022-10-21T06:56:51.179Z,16.17
2022-10-21T06:59:17.777Z,18.97
2022-10-21T07:02:00.880Z,15.90
2022-10-21T07:04:28.847Z,18.57
2022-10-21T07:06:55.469Z,15.33
2022-10-21T07:09:22.032Z,19.90
2022-10-21T07:11:48.687Z,15.47
2022-10-21T07:14:15.210Z,29.27
2022-10-21T07:16:42.156Z,23.90
2022-10-21T07:19:10.171Z,27.37
2022-10-21T07:21:36.685Z,18.57
2022-10-21T07:24:03.807Z,21.40
2022-10-21T07:26:32.515Z,25.53
2022-10-21T07:29:01.120Z,20.63
2022-10-21T07:31:31.343Z,18.87
2022-10-21T07:33:59.969Z,15.63
2022-10-21T07:36:29.503Z,23.60
2022-10-21T07:38:59.189Z,20.80
2022-10-21T07:41:29.705Z,17.77
2022-10-21T07:43:57.195Z,24.10
2022-10-21T07:46:24.579Z,23.73
2022-10-21T07:48:51.843Z,21.00
2022-10-21T07:51:23.667Z,19.50
2022-10-21T07:53:54.622Z,27.63
2022-10-21T07:56:27.217Z,17.30
2022-10-21T07:58:55.113Z,21.13
2022-10-21T08:01:21.854Z,14.83
2022-10-21T08:03:49.041Z,13.07
2022-10-21T08:06:17.363Z,15.13
2022-10-21T08:08:45.107Z,14.17
2022-10-21T08:11:19.731Z,16.70
2022-10-21T08:13:46.239Z,16.40
2022-10-21T08:16:12.772Z,19.33
2022-10-21T08:18:39.785Z,10.87
2022-10-21T08:21:06.680Z,12.33
2022-10-21T08:23:33.192Z,17.10
2022-10-21T08:26:01.180Z,11.03
2022-10-21T08:28:30.077Z,10.83
2022-10-21T08:31:08.556Z,14.27
2022-10-21T08:33:36.165Z,13.53
2022-10-21T08:36:11.639Z,13.47
2022-10-21T08:38:38.255Z,13.63
2022-10-21T08:41:31.258Z,13.63
2022-10-21T08:44:04.886Z,16.70
2022-10-21T08:46:51.549Z,15.37
2022-10-21T08:49:26.258Z,20.30
2022-10-21T08:52:18.694Z,17.13
2022-10-21T08:54:56.681Z,18.23
2022-10-21T08:57:23.257Z,19.57
2022-10-21T08:59:49.896Z,15.47
2022-10-21T09:02:41.537Z,11.27
2022-10-21T09:05:45.616Z,12.60
2022-10-21T09:08:29.196Z,11.43
2022-10-21T09:11:22.091Z,22.40
2022-10-21T09:14:09.516Z,11.37
2022-10-21T09:17:13.297Z,13.67
2022-10-21T09:20:00.099Z,14.77
2022-10-21T09:22:54.722Z,15.40
2022-10-21T09:25:34.779Z,15.60
2022-10-21T09:28:11.089Z,15.73
2022-10-21T09:30:39.184Z,11.50
2022-10-21T09:33:15.563Z,16.60
2022-10-21T09:35:53.789Z,16.47
2022-10-21T09:38:23.046Z,15.20
2022-10-21T09:40:59.000Z,11.97
2022-10-21T09:43:27.212Z,11.20
2022-10-21T09:45:54.580Z,12.03
2022-10-21T09:48:50.195Z,9.40
2022-10-21T09:51:32.333Z,12.93
2022-10-21T09:54:04.973Z,15.70
2022-10-21T09:56:39.778Z,8.90
2022-10-21T09:59:09.724Z,21.53
2022-10-21T10:01:38.370Z,9.13
2022-10-21T10:04:26.557Z,10.87
2022-10-21T10:06:53.146Z,9.93
2022-10-21T10:09:28.895Z,11.10
2022-10-21T10:12:05.711Z,9.10
2022-10-21T10:14:35.515Z,12.03
2022-10-21T10:17:23.987Z,8.50
2022-10-21T10:20:07.058Z,9.97
2022-10-21T10:22:37.635Z,8.97
2022-10-21T10:25:24.262Z,10.30
2022-10-21T10:27:52.503Z,7.73
2022-10-21T10:30:20.245Z,12.03
2022-10-21T10:32:49.431Z,8.83
2022-10-21T10:35:35.811Z,7.63
2022-10-21T10:38:03.541Z,10.33
2022-10-21T10:40:34.157Z,11.00
2022-10-21T10:43:12.023Z,11.83
2022-10-21T10:45:46.164Z,10.27
2022-10-21T10:53:42.440Z,9.40
2022-10-21T10:56:25.083Z,15.93
2022-10-21T10:58:57.704Z,12.20
2022-10-21T11:01:31.450Z,8.50
2022-10-21T11:04:06.192Z,10.17
2022-10-21T11:06:44.386Z,16.70
2022-10-21T11:09:10.987Z,8.43
2022-10-21T11:11:44.938Z,9.40
2022-10-21T11:14:17.595Z,11.20
2022-10-21T11:17:09.102Z,9.10
2022-10-21T11:19:35.611Z,10.87
2022-10-21T11:22:23.057Z,8.70
2022-10-21T11:25:11.293Z,8.43
2022-10-21T11:27:56.733Z,9.50
2022-10-21T11:30:33.842Z,10.70
2022-10-21T11:33:18.502Z,25.10
2022-10-21T11:36:12.953Z,7.87
2022-10-21T11:39:21.754Z,8.93
2022-10-21T11:42:16.783Z,14.03
2022-10-21T11:45:01.423Z,10.00
2022-10-21T11:47:42.992Z,7.23
2022-10-21T11:53:24.249Z,12.10
2022-10-21T11:56:04.770Z,8.87
2022-10-21T11:59:10.983Z,7.67
2022-10-21T12:01:50.887Z,15.77
2022-10-21T12:05:03.387Z,16.77
2022-10-21T12:07:53.994Z,16.40
2022-10-21T12:10:51.394Z,11.90
2022-10-21T12:13:44.633Z,8.17
2022-10-21T12:16:16.571Z,8.67
2022-10-21T12:19:03.194Z,8.13
2022-10-21T12:21:33.970Z,11.10
2022-10-21T12:24:21.889Z,11.30
2022-10-21T12:26:59.389Z,15.27
2022-10-21T12:29:56.611Z,7.67
2022-10-21T12:32:41.260Z,9.17
2022-10-21T12:35:30.421Z,10.33
2022-10-21T12:37:57.039Z,11.73
2022-10-21T12:40:26.956Z,12.53
2022-10-21T12:43:00.465Z,11.47
2022-10-21T12:45:38.125Z,7.43
2022-10-21T12:48:32.099Z,8.60
2022-10-21T12:51:06.018Z,10.27
2022-10-21T12:53:42.478Z,8.70
2022-10-21T12:56:10.756Z,12.50
2022-10-21T12:58:47.059Z,10.50
2022-10-21T13:01:39.631Z,10.00
2022-10-21T13:04:32.435Z,10.97
2022-10-21T13:07:04.342Z,13.20
2022-10-21T13:09:42.765Z,12.50
2022-10-21T13:12:09.273Z,13.10
2022-10-21T13:14:44.350Z,10.97
2022-10-21T13:17:48.966Z,14.27
2022-10-21T13:20:15.455Z,8.00
2022-10-21T13:22:45.368Z,10.47
2022-10-21T13:25:28.280Z,11.60
2022-10-21T13:28:04.950Z,10.50
2022-10-21T13:30:35.259Z,6.57
2022-10-21T13:33:07.429Z,10.23
2022-10-21T13:35:49.220Z,10.20
2022-10-21T13:38:27.134Z,8.97
2022-10-21T13:41:00.110Z,14.23
2022-10-21T13:43:29.681Z,13.53
2022-10-21T13:46:06.698Z,7.00
2022-10-21T13:48:42.089Z,8.80
2022-10-21T13:51:22.420Z,10.70
2022-10-21T13:53:52.870Z,5.43
2022-10-21T13:56:25.524Z,8.70
2022-10-21T13:58:52.788Z,9.13
2022-10-21T14:01:28.858Z,9.97
2022-10-21T14:04:12.232Z,5.40
2022-10-21T14:06:45.148Z,7.90
2022-10-21T14:09:22.375Z,7.30
2022-10-21T14:11:53.557Z,6.13
2022-10-21T14:14:24.452Z,9.00
2022-10-21T14:17:03.126Z,6.93
2022-10-21T14:19:34.394Z,8.73
2022-10-21T14:22:01.892Z,8.53
2022-10-21T14:24:38.946Z,14.73
2022-10-21T14:27:06.963Z,8.17
2022-10-21T14:29:35.929Z,7.40
2022-10-21T14:32:04.299Z,6.37
2022-10-21T14:34:34.521Z,12.97
2022-10-21T14:37:09.391Z,10.57
2022-10-21T14:39:39.604Z,12.10
2022-10-21T14:42:18.914Z,8.10
2022-10-21T14:44:47.686Z,9.97
2022-10-21T14:47:32.497Z,9.13
2022-10-21T14:49:59.804Z,9.17
2022-10-21T14:52:36.458Z,12.40
2022-10-21T14:55:08.948Z,7.67
2022-10-21T14:57:42.716Z,8.87
2022-10-21T15:00:28.932Z,11.07
2022-10-21T15:02:59.016Z,10.87
2022-10-21T15:05:36.675Z,7.37
2022-10-21T15:08:21.671Z,8.40
2022-10-21T15:10:57.035Z,12.10
2022-10-21T15:13:25.837Z,12.57
2022-10-21T15:15:55.340Z,8.50
2022-10-21T15:18:27.402Z,12.03
2022-10-21T15:21:00.105Z,8.90
2022-10-21T15:23:32.740Z,11.73
2022-10-21T15:26:03.683Z,8.60
2022-10-21T15:28:34.466Z,9.53
2022-10-21T15:31:02.722Z,12.00
2022-10-21T15:33:30.514Z,9.70
2022-10-21T15:36:05.357Z,11.30
2022-10-21T15:38:32.026Z,10.17
2022-10-21T15:40:58.633Z,7.43
2022-10-21T15:43:25.243Z,7.80
2022-10-21T15:45:51.845Z,9.60
2022-10-21T15:48:18.381Z,12.33
2022-10-21T15:50:44.898Z,15.03
2022-10-21T15:53:11.684Z,11.10
2022-10-21T15:55:39.300Z,14.83
2022-10-21T15:58:06.501Z,9.83
2022-10-21T16:00:39.858Z,12.77
2022-10-21T16:03:08.327Z,15.20
2022-10-21T16:05:35.116Z,11.33
2022-10-21T16:08:01.698Z,10.47
2022-10-21T16:10:32.786Z,10.83
2022-10-21T16:12:59.463Z,12.77
2022-10-21T16:15:26.764Z,13.07
2022-10-21T16:17:56.596Z,13.70
2022-10-21T16:20:24.565Z,16.13
2022-10-21T16:22:51.956Z,18.70
2022-10-21T16:25:19.173Z,11.53
2022-10-21T16:27:55.616Z,28.93
2022-10-21T16:30:26.554Z,18.00
2022-10-21T16:32:53.242Z,14.03
2022-10-21T16:35:21.254Z,14.07
2022-10-21T16:37:49.325Z,14.70
2022-10-21T16:40:22.266Z,14.40
2022-10-21T16:42:50.579Z,14.00
2022-10-21T16:45:18.810Z,18.40
2022-10-21T16:47:51.101Z,10.50
2022-10-21T16:50:21.839Z,16.37
2022-10-21T16:52:49.303Z,10.33
2022-10-21T16:55:16.713Z,8.50
2022-10-21T16:57:43.590Z,10.40
2022-10-21T17:00:11.683Z,9.43
2022-10-21T17:02:40.430Z,14.37
2022-10-21T17:05:08.566Z,13.63
2022-10-21T17:07:35.218Z,11.67
2022-10-21T17:10:02.130Z,10.33
2022-10-21T17:12:31.402Z,11.00
2022-10-21T17:14:58.139Z,17.70
2022-10-21T17:17:24.992Z,15.60
2022-10-21T17:19:52.369Z,11.27
2022-10-21T17:22:19.638Z,13.70
2022-10-21T17:24:47.522Z,14.10
2022-10-21T17:27:18.733Z,14.90
2022-10-21T17:29:46.374Z,12.87
2022-10-21T17:32:13.314Z,18.77
2022-10-21T17:34:40.206Z,14.17
2022-10-21T17:37:07.962Z,15.13
2022-10-21T17:39:34.559Z,21.20
2022-10-21T17:42:01.174Z,14.77
2022-10-21T17:44:27.947Z,15.17
2022-10-21T17:46:54.723Z,12.10
2022-10-21T17:49:24.449Z,16.70
2022-10-21T17:51:51.511Z,12.10
2022-10-21T17:54:22.591Z,13.67
2022-10-21T17:56:52.824Z,30.93
2022-10-21T17:59:19.446Z,12.40
2022-10-21T18:01:46.728Z,15.03
2022-10-21T18:04:14.095Z,11.80
2022-10-21T18:06:41.036Z,13.60
2022-10-21T18:09:08.774Z,14.67
2022-10-21T18:11:36.757Z,18.40
2022-10-21T18:14:04.750Z,14.40
2022-10-21T18:16:31.738Z,15.80
2022-10-21T18:19:01.824Z,11.03
2022-10-21T18:21:30.222Z,18.67
2022-10-21T18:23:56.955Z,11.23
2022-10-21T18:26:26.776Z,14.87
2022-10-21T18:28:58.897Z,16.63
2022-10-21T18:31:30.848Z,24.13
2022-10-21T18:33:58.804Z,12.10
2022-10-21T18:36:25.772Z,15.80
2022-10-21T18:38:52.500Z,12.90
2022-10-21T18:41:21.401Z,16.53
2022-10-21T18:44:01.320Z,13.03
2022-10-21T18:46:29.083Z,16.83
2022-10-21T18:48:55.734Z,11.33
2022-10-21T18:51:23.804Z,10.70
2022-10-21T18:53:52.787Z,14.17
2022-10-21T18:56:21.295Z,13.90
2022-10-21T18:58:48.223Z,18.37
2022-10-21T19:01:15.660Z,14.40
2022-10-21T19:03:43.107Z,15.23
2022-10-21T19:06:32.965Z,14.97
2022-10-21T19:09:01.222Z,20.20
2022-10-21T19:11:28.739Z,15.30
2022-10-21T19:13:56.132Z,14.17
2022-10-21T19:16:23.098Z,17.57
2022-10-21T19:18:49.721Z,21.67
2022-10-21T19:21:20.727Z,25.40
2022-10-21T19:23:47.670Z,17.07
2022-10-21T19:26:14.677Z,18.90
2022-10-21T19:28:41.427Z,15.97
2022-10-21T19:31:08.743Z,17.63
2022-10-21T19:33:35.400Z,22.07
2022-10-21T19:36:04.962Z,18.30
2022-10-21T19:38:43.788Z,30.50
2022-10-21T19:41:15.922Z,27.43
2022-10-21T19:43:42.676Z,32.77
2022-10-21T19:46:10.864Z,42.13
2022-10-21T19:48:37.695Z,21.00
2022-10-21T19:51:04.787Z,13.80
2022-10-21T19:53:34.376Z,14.70
2022-10-21T19:56:05.479Z,139.73
2022-10-21T19:58:32.989Z,13.77
2022-10-21T20:01:04.613Z,22.93
2022-10-21T20:03:31.786Z,96.80
2022-10-21T20:05:58.377Z,50.30
2022-10-21T20:11:01.013Z,70.87
2022-10-21T20:13:28.789Z,44.73
2022-10-21T20:15:55.444Z,65.23
2022-10-21T20:18:24.867Z,27.77
2022-10-21T20:20:55.513Z,30.37
2022-10-21T20:23:23.437Z,91.80
2022-10-21T20:25:55.089Z,195.60
2022-10-21T20:28:22.294Z,25.67
2022-10-21T20:31:06.195Z,28.77
2022-10-21T20:33:35.923Z,148.67
2022-10-21T20:36:07.701Z,125.77
2022-10-21T20:38:34.699Z,241.07
2022-10-21T20:41:08.151Z,391.90
2022-10-21T20:43:35.752Z,362.57
2022-10-21T20:46:08.009Z,248.10
2022-10-21T20:48:35.441Z,184.10
2022-10-21T20:51:11.090Z,223.00
2022-10-21T20:53:40.119Z,107.77
2022-10-21T20:56:07.485Z,76.80
2022-10-21T20:58:39.167Z,63.80
2022-10-21T21:01:07.634Z,31.57
2022-10-21T21:03:34.503Z,18.30
2022-10-21T21:06:02.419Z,18.30
2022-10-21T21:08:28.995Z,18.67
2022-10-21T21:11:07.472Z,18.10
2022-10-21T21:13:34.298Z,12.20
2022-10-21T21:16:21.228Z,10.97
2022-10-21T21:18:53.866Z,16.90
2022-10-21T21:21:21.961Z,15.33
2022-10-21T21:23:49.161Z,13.63
2022-10-21T21:26:19.111Z,21.27
2022-10-21T21:28:46.748Z,22.53
2022-10-21T21:31:14.910Z,21.20
2022-10-21T21:33:42.450Z,16.30
2022-10-21T21:36:09.720Z,17.17
2022-10-21T21:38:36.322Z,17.73
2022-10-21T21:41:05.613Z,20.23
2022-10-21T21:43:36.662Z,13.80
2022-10-21T21:46:03.742Z,20.23
2022-10-21T21:48:33.675Z,13.83
2022-10-21T21:51:05.935Z,14.83
2022-10-21T21:53:32.968Z,11.43
2022-10-21T21:56:04.208Z,13.40
2022-10-21T21:58:31.063Z,11.90
2022-10-21T22:00:58.100Z,14.80
2022-10-21T22:03:24.672Z,23.70
2022-10-21T22:05:51.199Z,21.50
2022-10-21T22:08:17.747Z,17.33
2022-10-21T22:10:44.266Z,16.53
2022-10-21T22:13:12.660Z,18.30
2022-10-21T22:15:54.678Z,16.10
2022-10-21T22:18:21.663Z,21.43
2022-10-21T22:20:48.165Z,12.80
2022-10-21T22:23:14.770Z,24.50
2022-10-21T22:25:41.312Z,16.23
2022-10-21T22:28:07.828Z,25.33
2022-10-21T22:30:34.347Z,20.43
2022-10-21T22:33:00.891Z,14.67
2022-10-21T22:35:28.179Z,14.87
2022-10-21T22:37:54.706Z,10.50
2022-10-21T22:40:21.294Z,17.67
2022-10-21T22:42:47.823Z,17.43
2022-10-21T22:45:14.692Z,11.30
2022-10-21T22:47:41.530Z,12.17
2022-10-21T22:50:08.736Z,18.20
2022-10-21T22:52:35.256Z,12.70
2022-10-21T22:55:01.991Z,10.77
2022-10-21T22:57:28.529Z,10.93
2022-10-21T22:59:55.075Z,18.33
2022-10-21T23:02:21.723Z,11.20
2022-10-21T23:04:48.217Z,24.43
2022-10-21T23:07:14.991Z,14.13
2022-10-21T23:09:41.554Z,11.47
2022-10-21T23:12:08.583Z,10.47
2022-10-21T23:14:35.179Z,12.50
2022-10-21T23:17:01.718Z,11.63
2022-10-21T23:19:28.311Z,11.50
2022-10-21T23:21:55.018Z,10.30
2022-10-21T23:24:21.890Z,427.20
2022-10-21T23:26:48.447Z,195.87
2022-10-21T23:29:15.211Z,22.10
2022-10-21T23:31:42.160Z,11.40
2022-10-21T23:34:09.325Z,14.90
2022-10-21T23:36:36.610Z,10.90
2022-10-21T23:39:04.032Z,23.63
2022-10-21T23:41:30.624Z,12.63
2022-10-21T23:43:57.170Z,18.40
2022-10-21T23:46:23.943Z,11.00
2022-10-21T23:48:50.604Z,9.97
2022-10-21T23:51:17.182Z,12.20
2022-10-21T23:53:44.006Z,12.73
2022-10-21T23:56:10.579Z,16.33
2022-10-21T23:58:38.008Z,12.40
